Terminal Aerodrome Forecast
Issued by NWS Sterling, VA

Current Version | Previous Version | Text Only | Print | Product List | Glossary Off
Versions: 1 2 3 4 5 6 7 8 9 10 11 12 13 14

228
FTUS41 KLWX 201730
TAFMRB
TAF
KMRB 201730Z 2018/2118 VRB03KT P6SM BKN100
     FM210400 VRB03KT 4SM -SHRA OVC060
     FM210600 00000KT 2SM -SHRA OVC050
     FM210900 00000KT 2SM BR OVC030
     FM211200 VRB03KT 4SM BR OVC030
     FM211500 33006KT P6SM OVC030=

USA.gov is the U.S. government's official web portal to all federal, state and local government web resources and services.